sensor_id;sensor_type;location;lat;lon;timestamp;P1;durP1;ratioP1;P2;durP2;ratioP2
21192;SDS011;10754;51.106;7.164;2022-10-17T00:02:14;2.78;;;2.28;;
21192;SDS011;10754;51.106;7.164;2022-10-17T00:04:39;3.65;;;2.03;;
21192;SDS011;10754;51.106;7.164;2022-10-17T00:07:05;2.20;;;2.00;;
21192;SDS011;10754;51.106;7.164;2022-10-17T00:09:30;5.38;;;2.28;;
21192;SDS011;10754;51.106;7.164;2022-10-17T00:11:56;5.65;;;2.40;;
21192;SDS011;10754;51.106;7.164;2022-10-17T00:14:21;2.45;;;1.80;;
21192;SDS011;10754;51.106;7.164;2022-10-17T00:16:47;4.47;;;2.28;;
21192;SDS011;10754;51.106;7.164;2022-10-17T00:19:12;7.18;;;2.60;;
21192;SDS011;10754;51.106;7.164;2022-10-17T00:21:38;8.88;;;2.20;;
21192;SDS011;10754;51.106;7.164;2022-10-17T00:24:03;4.45;;;2.13;;
21192;SDS011;10754;51.106;7.164;2022-10-17T00:26:29;4.35;;;2.20;;
21192;SDS011;10754;51.106;7.164;2022-10-17T00:28:55;3.15;;;2.20;;
21192;SDS011;10754;51.106;7.164;2022-10-17T00:31:21;6.22;;;2.30;;
21192;SDS011;10754;51.106;7.164;2022-10-17T00:33:48;3.97;;;2.10;;
21192;SDS011;10754;51.106;7.164;2022-10-17T00:36:15;2.90;;;2.03;;
21192;SDS011;10754;51.106;7.164;2022-10-17T00:38:46;5.13;;;2.10;;
21192;SDS011;10754;51.106;7.164;2022-10-17T00:41:14;5.82;;;2.20;;
21192;SDS011;10754;51.106;7.164;2022-10-17T00:43:51;4.72;;;2.42;;
21192;SDS011;10754;51.106;7.164;2022-10-17T00:46:20;2.63;;;1.92;;
21192;SDS011;10754;51.106;7.164;2022-10-17T00:48:47;2.58;;;2.33;;
21192;SDS011;10754;51.106;7.164;2022-10-17T00:51:14;4.85;;;2.45;;
21192;SDS011;10754;51.106;7.164;2022-10-17T00:53:44;4.50;;;2.10;;
21192;SDS011;10754;51.106;7.164;2022-10-17T00:56:09;3.58;;;2.00;;
21192;SDS011;10754;51.106;7.164;2022-10-17T00:58:35;3.63;;;2.00;;
21192;SDS011;10754;51.106;7.164;2022-10-17T01:01:01;5.57;;;2.35;;
21192;SDS011;10754;51.106;7.164;2022-10-17T01:03:27;4.75;;;2.28;;
21192;SDS011;10754;51.106;7.164;2022-10-17T01:05:52;4.38;;;2.50;;
21192;SDS011;10754;51.106;7.164;2022-10-17T01:08:18;5.78;;;2.63;;
21192;SDS011;10754;51.106;7.164;2022-10-17T01:11:00;5.45;;;2.15;;
21192;SDS011;10754;51.106;7.164;2022-10-17T01:14:17;4.18;;;2.17;;
21192;SDS011;10754;51.106;7.164;2022-10-17T01:16:45;5.35;;;2.42;;
21192;SDS011;10754;51.106;7.164;2022-10-17T01:22:17;4.10;;;2.20;;
21192;SDS011;10754;51.106;7.164;2022-10-17T01:25:09;2.40;;;2.20;;
21192;SDS011;10754;51.106;7.164;2022-10-17T01:31:11;3.15;;;2.08;;
21192;SDS011;10754;51.106;7.164;2022-10-17T01:33:42;4.30;;;2.10;;
21192;SDS011;10754;51.106;7.164;2022-10-17T01:36:25;7.18;;;2.58;;
21192;SDS011;10754;51.106;7.164;2022-10-17T01:39:15;3.85;;;2.17;;
21192;SDS011;10754;51.106;7.164;2022-10-17T01:42:01;3.75;;;2.35;;
21192;SDS011;10754;51.106;7.164;2022-10-17T01:47:07;3.60;;;1.80;;
21192;SDS011;10754;51.106;7.164;2022-10-17T01:49:37;5.50;;;2.20;;
21192;SDS011;10754;51.106;7.164;2022-10-17T01:52:08;3.35;;;2.17;;
21192;SDS011;10754;51.106;7.164;2022-10-17T01:54:39;4.35;;;1.95;;
21192;SDS011;10754;51.106;7.164;2022-10-17T01:57:13;6.13;;;2.10;;
21192;SDS011;10754;51.106;7.164;2022-10-17T01:59:45;3.63;;;1.98;;
21192;SDS011;10754;51.106;7.164;2022-10-17T02:02:15;4.88;;;2.08;;
21192;SDS011;10754;51.106;7.164;2022-10-17T02:04:42;4.85;;;2.10;;
21192;SDS011;10754;51.106;7.164;2022-10-17T02:07:10;4.28;;;1.88;;
21192;SDS011;10754;51.106;7.164;2022-10-17T02:09:37;4.35;;;2.33;;
21192;SDS011;10754;51.106;7.164;2022-10-17T02:15:20;4.97;;;2.30;;
21192;SDS011;10754;51.106;7.164;2022-10-17T02:18:24;2.75;;;2.13;;
21192;SDS011;10754;51.106;7.164;2022-10-17T02:21:07;3.17;;;2.10;;
21192;SDS011;10754;51.106;7.164;2022-10-17T02:23:50;3.10;;;1.90;;
21192;SDS011;10754;51.106;7.164;2022-10-17T02:31:38;5.28;;;2.42;;
21192;SDS011;10754;51.106;7.164;2022-10-17T02:34:17;3.47;;;2.22;;
21192;SDS011;10754;51.106;7.164;2022-10-17T02:36:49;2.28;;;2.03;;
21192;SDS011;10754;51.106;7.164;2022-10-17T02:39:18;5.68;;;2.00;;
21192;SDS011;10754;51.106;7.164;2022-10-17T02:41:45;3.28;;;1.92;;
21192;SDS011;10754;51.106;7.164;2022-10-17T02:44:13;2.35;;;2.15;;
21192;SDS011;10754;51.106;7.164;2022-10-17T02:46:39;4.07;;;2.20;;
21192;SDS011;10754;51.106;7.164;2022-10-17T02:54:21;10.68;;;2.85;;
21192;SDS011;10754;51.106;7.164;2022-10-17T02:57:41;5.57;;;2.70;;
21192;SDS011;10754;51.106;7.164;2022-10-17T02:59:56;3.17;;;2.10;;
21192;SDS011;10754;51.106;7.164;2022-10-17T03:02:25;4.43;;;2.13;;
21192;SDS011;10754;51.106;7.164;2022-10-17T03:04:50;12.60;;;2.55;;
21192;SDS011;10754;51.106;7.164;2022-10-17T03:07:16;3.90;;;2.30;;
21192;SDS011;10754;51.106;7.164;2022-10-17T03:09:41;3.17;;;1.95;;
21192;SDS011;10754;51.106;7.164;2022-10-17T03:12:07;3.10;;;2.22;;
21192;SDS011;10754;51.106;7.164;2022-10-17T03:14:32;2.10;;;1.90;;
21192;SDS011;10754;51.106;7.164;2022-10-17T03:16:58;7.88;;;2.58;;
21192;SDS011;10754;51.106;7.164;2022-10-17T03:19:23;4.80;;;2.50;;
21192;SDS011;10754;51.106;7.164;2022-10-17T03:21:49;2.30;;;2.10;;
21192;SDS011;10754;51.106;7.164;2022-10-17T03:24:14;6.47;;;2.53;;
21192;SDS011;10754;51.106;7.164;2022-10-17T03:26:40;5.25;;;2.13;;
21192;SDS011;10754;51.106;7.164;2022-10-17T03:29:05;3.13;;;2.22;;
21192;SDS011;10754;51.106;7.164;2022-10-17T03:31:31;5.82;;;2.40;;
21192;SDS011;10754;51.106;7.164;2022-10-17T03:33:56;3.53;;;2.10;;
21192;SDS011;10754;51.106;7.164;2022-10-17T03:36:22;6.72;;;2.40;;
21192;SDS011;10754;51.106;7.164;2022-10-17T03:38:47;3.85;;;2.10;;
21192;SDS011;10754;51.106;7.164;2022-10-17T03:41:13;7.40;;;2.30;;
21192;SDS011;10754;51.106;7.164;2022-10-17T03:43:39;3.33;;;2.25;;
21192;SDS011;10754;51.106;7.164;2022-10-17T03:46:04;7.60;;;2.65;;
21192;SDS011;10754;51.106;7.164;2022-10-17T03:48:31;5.43;;;2.20;;
21192;SDS011;10754;51.106;7.164;2022-10-17T03:51:01;3.78;;;2.30;;
21192;SDS011;10754;51.106;7.164;2022-10-17T03:53:31;4.80;;;2.15;;
21192;SDS011;10754;51.106;7.164;2022-10-17T03:56:07;3.90;;;2.85;;
21192;SDS011;10754;51.106;7.164;2022-10-17T03:58:34;4.85;;;2.90;;
21192;SDS011;10754;51.106;7.164;2022-10-17T04:01:03;5.30;;;2.30;;
21192;SDS011;10754;51.106;7.164;2022-10-17T04:03:31;3.00;;;2.13;;
21192;SDS011;10754;51.106;7.164;2022-10-17T04:06:00;3.72;;;2.25;;
21192;SDS011;10754;51.106;7.164;2022-10-17T04:08:27;3.83;;;2.08;;
21192;SDS011;10754;51.106;7.164;2022-10-17T04:10:56;6.43;;;2.83;;
21192;SDS011;10754;51.106;7.164;2022-10-17T04:13:27;4.70;;;2.10;;
21192;SDS011;10754;51.106;7.164;2022-10-17T04:15:53;3.60;;;2.28;;
21192;SDS011;10754;51.106;7.164;2022-10-17T04:18:20;3.38;;;2.00;;
21192;SDS011;10754;51.106;7.164;2022-10-17T04:20:45;6.32;;;2.47;;
21192;SDS011;10754;51.106;7.164;2022-10-17T04:23:11;8.77;;;2.67;;
21192;SDS011;10754;51.106;7.164;2022-10-17T04:25:36;3.72;;;2.30;;
21192;SDS011;10754;51.106;7.164;2022-10-17T04:28:02;3.88;;;2.05;;
21192;SDS011;10754;51.106;7.164;2022-10-17T04:30:27;8.75;;;2.50;;
21192;SDS011;10754;51.106;7.164;2022-10-17T04:32:53;2.92;;;2.00;;
21192;SDS011;10754;51.106;7.164;2022-10-17T04:35:18;5.13;;;2.17;;
21192;SDS011;10754;51.106;7.164;2022-10-17T04:37:44;3.80;;;2.10;;
21192;SDS011;10754;51.106;7.164;2022-10-17T04:40:10;3.42;;;1.92;;
21192;SDS011;10754;51.106;7.164;2022-10-17T04:42:35;2.40;;;2.20;;
21192;SDS011;10754;51.106;7.164;2022-10-17T04:45:01;2.78;;;2.30;;
21192;SDS011;10754;51.106;7.164;2022-10-17T04:47:26;5.78;;;2.60;;
21192;SDS011;10754;51.106;7.164;2022-10-17T04:49:52;3.10;;;2.15;;
21192;SDS011;10754;51.106;7.164;2022-10-17T04:52:17;5.15;;;2.50;;
21192;SDS011;10754;51.106;7.164;2022-10-17T04:54:43;5.28;;;2.30;;
21192;SDS011;10754;51.106;7.164;2022-10-17T04:57:08;4.75;;;2.00;;
21192;SDS011;10754;51.106;7.164;2022-10-17T04:59:34;3.10;;;2.00;;
21192;SDS011;10754;51.106;7.164;2022-10-17T05:01:59;2.67;;;2.00;;
21192;SDS011;10754;51.106;7.164;2022-10-17T05:04:25;4.68;;;2.30;;
21192;SDS011;10754;51.106;7.164;2022-10-17T05:06:51;6.10;;;2.60;;
21192;SDS011;10754;51.106;7.164;2022-10-17T05:09:16;4.13;;;1.90;;
21192;SDS011;10754;51.106;7.164;2022-10-17T05:11:42;5.25;;;2.42;;
21192;SDS011;10754;51.106;7.164;2022-10-17T05:14:07;3.10;;;1.83;;
21192;SDS011;10754;51.106;7.164;2022-10-17T05:16:33;2.85;;;1.88;;
21192;SDS011;10754;51.106;7.164;2022-10-17T05:18:59;3.83;;;2.28;;
21192;SDS011;10754;51.106;7.164;2022-10-17T05:21:26;6.35;;;2.47;;
21192;SDS011;10754;51.106;7.164;2022-10-17T05:23:52;4.82;;;2.10;;
21192;SDS011;10754;51.106;7.164;2022-10-17T05:26:19;4.07;;;2.28;;
21192;SDS011;10754;51.106;7.164;2022-10-17T05:28:45;6.38;;;2.00;;
21192;SDS011;10754;51.106;7.164;2022-10-17T05:31:10;4.93;;;2.35;;
21192;SDS011;10754;51.106;7.164;2022-10-17T05:33:36;4.05;;;2.10;;
21192;SDS011;10754;51.106;7.164;2022-10-17T05:36:03;4.68;;;1.92;;
21192;SDS011;10754;51.106;7.164;2022-10-17T05:38:29;5.35;;;2.10;;
21192;SDS011;10754;51.106;7.164;2022-10-17T05:40:58;4.93;;;2.03;;
21192;SDS011;10754;51.106;7.164;2022-10-17T05:43:26;2.83;;;2.35;;
21192;SDS011;10754;51.106;7.164;2022-10-17T05:45:51;6.57;;;2.50;;
21192;SDS011;10754;51.106;7.164;2022-10-17T05:48:18;4.53;;;2.50;;
21192;SDS011;10754;51.106;7.164;2022-10-17T05:50:43;3.15;;;2.25;;
21192;SDS011;10754;51.106;7.164;2022-10-17T05:53:09;4.38;;;2.05;;
21192;SDS011;10754;51.106;7.164;2022-10-17T05:55:35;4.47;;;2.17;;
21192;SDS011;10754;51.106;7.164;2022-10-17T05:58:00;5.72;;;2.45;;
21192;SDS011;10754;51.106;7.164;2022-10-17T06:00:26;3.08;;;2.20;;
21192;SDS011;10754;51.106;7.164;2022-10-17T06:02:51;6.07;;;2.10;;
21192;SDS011;10754;51.106;7.164;2022-10-17T06:05:17;5.15;;;2.20;;
21192;SDS011;10754;51.106;7.164;2022-10-17T06:07:43;4.03;;;1.85;;
21192;SDS011;10754;51.106;7.164;2022-10-17T06:10:09;4.68;;;2.40;;
21192;SDS011;10754;51.106;7.164;2022-10-17T06:12:40;4.35;;;2.35;;
21192;SDS011;10754;51.106;7.164;2022-10-17T06:15:06;5.72;;;2.40;;
21192;SDS011;10754;51.106;7.164;2022-10-17T06:17:32;4.45;;;2.40;;
21192;SDS011;10754;51.106;7.164;2022-10-17T06:19:57;3.60;;;2.10;;
21192;SDS011;10754;51.106;7.164;2022-10-17T06:22:23;2.88;;;2.28;;
21192;SDS011;10754;51.106;7.164;2022-10-17T06:24:49;2.97;;;2.67;;
21192;SDS011;10754;51.106;7.164;2022-10-17T06:27:14;5.45;;;2.35;;
21192;SDS011;10754;51.106;7.164;2022-10-17T06:29:40;4.15;;;2.22;;
21192;SDS011;10754;51.106;7.164;2022-10-17T06:32:06;4.68;;;2.53;;
21192;SDS011;10754;51.106;7.164;2022-10-17T06:34:31;4.88;;;2.55;;
21192;SDS011;10754;51.106;7.164;2022-10-17T06:36:57;4.63;;;2.17;;
21192;SDS011;10754;51.106;7.164;2022-10-17T06:39:22;5.18;;;2.58;;
21192;SDS011;10754;51.106;7.164;2022-10-17T06:41:50;3.00;;;2.30;;
21192;SDS011;10754;51.106;7.164;2022-10-17T06:44:16;7.28;;;2.85;;
21192;SDS011;10754;51.106;7.164;2022-10-17T06:46:42;2.35;;;1.73;;
21192;SDS011;10754;51.106;7.164;2022-10-17T06:49:08;3.67;;;2.40;;
21192;SDS011;10754;51.106;7.164;2022-10-17T06:51:34;3.33;;;2.10;;
21192;SDS011;10754;51.106;7.164;2022-10-17T06:54:00;3.67;;;2.38;;
21192;SDS011;10754;51.106;7.164;2022-10-17T06:56:26;5.82;;;2.28;;
21192;SDS011;10754;51.106;7.164;2022-10-17T06:58:52;9.82;;;3.00;;
21192;SDS011;10754;51.106;7.164;2022-10-17T07:01:18;5.05;;;2.35;;
21192;SDS011;10754;51.106;7.164;2022-10-17T07:03:46;3.28;;;1.88;;
21192;SDS011;10754;51.106;7.164;2022-10-17T07:06:13;3.22;;;2.25;;
21192;SDS011;10754;51.106;7.164;2022-10-17T07:08:42;3.55;;;2.20;;
21192;SDS011;10754;51.106;7.164;2022-10-17T07:11:13;6.07;;;2.28;;
21192;SDS011;10754;51.106;7.164;2022-10-17T07:13:41;5.22;;;2.33;;
21192;SDS011;10754;51.106;7.164;2022-10-17T07:16:06;2.38;;;2.10;;
21192;SDS011;10754;51.106;7.164;2022-10-17T07:18:32;2.33;;;2.05;;
21192;SDS011;10754;51.106;7.164;2022-10-17T07:20:58;5.32;;;2.17;;
21192;SDS011;10754;51.106;7.164;2022-10-17T07:23:24;5.55;;;2.20;;
21192;SDS011;10754;51.106;7.164;2022-10-17T07:25:50;5.65;;;2.15;;
21192;SDS011;10754;51.106;7.164;2022-10-17T07:28:15;7.45;;;2.53;;
21192;SDS011;10754;51.106;7.164;2022-10-17T07:30:41;3.42;;;2.15;;
21192;SDS011;10754;51.106;7.164;2022-10-17T07:33:06;3.05;;;2.10;;
21192;SDS011;10754;51.106;7.164;2022-10-17T07:35:32;3.20;;;2.08;;
21192;SDS011;10754;51.106;7.164;2022-10-17T07:37:58;4.65;;;2.47;;
21192;SDS011;10754;51.106;7.164;2022-10-17T07:40:23;4.63;;;2.65;;
21192;SDS011;10754;51.106;7.164;2022-10-17T07:42:49;3.10;;;2.20;;
21192;SDS011;10754;51.106;7.164;2022-10-17T07:45:15;3.25;;;2.15;;
21192;SDS011;10754;51.106;7.164;2022-10-17T07:47:40;3.80;;;2.10;;
21192;SDS011;10754;51.106;7.164;2022-10-17T07:50:06;4.68;;;2.72;;
21192;SDS011;10754;51.106;7.164;2022-10-17T07:52:32;3.35;;;2.00;;
21192;SDS011;10754;51.106;7.164;2022-10-17T07:54:58;5.20;;;2.47;;
21192;SDS011;10754;51.106;7.164;2022-10-17T07:57:24;4.70;;;2.15;;
21192;SDS011;10754;51.106;7.164;2022-10-17T07:59:49;8.23;;;2.55;;
21192;SDS011;10754;51.106;7.164;2022-10-17T08:02:23;5.07;;;2.28;;
21192;SDS011;10754;51.106;7.164;2022-10-17T08:04:50;5.63;;;2.00;;
21192;SDS011;10754;51.106;7.164;2022-10-17T08:07:15;4.22;;;2.10;;
21192;SDS011;10754;51.106;7.164;2022-10-17T08:09:42;2.45;;;1.88;;
21192;SDS011;10754;51.106;7.164;2022-10-17T08:12:08;6.10;;;2.13;;
21192;SDS011;10754;51.106;7.164;2022-10-17T08:14:33;3.75;;;2.28;;
21192;SDS011;10754;51.106;7.164;2022-10-17T08:16:59;4.38;;;2.10;;
21192;SDS011;10754;51.106;7.164;2022-10-17T08:19:25;5.80;;;2.33;;
21192;SDS011;10754;51.106;7.164;2022-10-17T08:21:50;5.80;;;2.10;;
21192;SDS011;10754;51.106;7.164;2022-10-17T08:24:16;6.15;;;2.30;;
21192;SDS011;10754;51.106;7.164;2022-10-17T08:26:42;5.13;;;2.17;;
21192;SDS011;10754;51.106;7.164;2022-10-17T08:29:16;4.18;;;1.90;;
21192;SDS011;10754;51.106;7.164;2022-10-17T08:31:42;2.60;;;2.03;;
21192;SDS011;10754;51.106;7.164;2022-10-17T08:34:08;3.90;;;2.38;;
21192;SDS011;10754;51.106;7.164;2022-10-17T08:36:33;6.03;;;2.45;;
21192;SDS011;10754;51.106;7.164;2022-10-17T08:38:59;4.82;;;2.20;;
21192;SDS011;10754;51.106;7.164;2022-10-17T08:44:18;3.63;;;2.05;;
21192;SDS011;10754;51.106;7.164;2022-10-17T08:47:04;2.80;;;2.10;;
21192;SDS011;10754;51.106;7.164;2022-10-17T08:52:15;6.13;;;2.10;;
21192;SDS011;10754;51.106;7.164;2022-10-17T08:55:15;5.18;;;2.00;;
21192;SDS011;10754;51.106;7.164;2022-10-17T08:57:43;8.85;;;2.20;;
21192;SDS011;10754;51.106;7.164;2022-10-17T09:00:16;3.90;;;2.10;;
21192;SDS011;10754;51.106;7.164;2022-10-17T09:03:06;3.50;;;1.92;;
21192;SDS011;10754;51.106;7.164;2022-10-17T09:06:33;4.25;;;2.42;;
21192;SDS011;10754;51.106;7.164;2022-10-17T09:08:50;3.47;;;2.40;;
21192;SDS011;10754;51.106;7.164;2022-10-17T09:14:36;3.97;;;2.10;;
21192;SDS011;10754;51.106;7.164;2022-10-17T09:19:53;4.60;;;1.65;;
21192;SDS011;10754;51.106;7.164;2022-10-17T09:22:24;3.92;;;2.03;;
21192;SDS011;10754;51.106;7.164;2022-10-17T09:24:58;3.42;;;1.60;;
21192;SDS011;10754;51.106;7.164;2022-10-17T09:30:22;4.85;;;2.53;;
21192;SDS011;10754;51.106;7.164;2022-10-17T09:32:56;5.38;;;2.28;;
21192;SDS011;10754;51.106;7.164;2022-10-17T09:35:21;3.40;;;1.80;;
21192;SDS011;10754;51.106;7.164;2022-10-17T09:37:49;2.78;;;2.10;;
21192;SDS011;10754;51.106;7.164;2022-10-17T09:40:22;2.75;;;1.60;;
21192;SDS011;10754;51.106;7.164;2022-10-17T09:42:50;3.10;;;1.90;;
21192;SDS011;10754;51.106;7.164;2022-10-17T09:45:17;4.82;;;1.77;;
21192;SDS011;10754;51.106;7.164;2022-10-17T09:47:51;5.47;;;2.50;;
21192;SDS011;10754;51.106;7.164;2022-10-17T09:50:30;4.00;;;2.00;;
21192;SDS011;10754;51.106;7.164;2022-10-17T09:53:17;3.10;;;1.85;;
21192;SDS011;10754;51.106;7.164;2022-10-17T09:55:57;6.35;;;2.00;;
21192;SDS011;10754;51.106;7.164;2022-10-17T09:58:41;2.88;;;1.60;;
21192;SDS011;10754;51.106;7.164;2022-10-17T10:03:40;3.53;;;1.70;;
21192;SDS011;10754;51.106;7.164;2022-10-17T10:06:13;3.03;;;1.80;;
21192;SDS011;10754;51.106;7.164;2022-10-17T10:08:48;4.57;;;2.00;;
21192;SDS011;10754;51.106;7.164;2022-10-17T10:11:23;2.53;;;1.90;;
21192;SDS011;10754;51.106;7.164;2022-10-17T10:13:50;5.18;;;1.90;;
21192;SDS011;10754;51.106;7.164;2022-10-17T10:16:18;3.72;;;1.85;;
21192;SDS011;10754;51.106;7.164;2022-10-17T10:18:48;3.38;;;2.22;;
21192;SDS011;10754;51.106;7.164;2022-10-17T10:21:22;3.40;;;1.83;;
21192;SDS011;10754;51.106;7.164;2022-10-17T10:26:43;7.10;;;2.10;;
21192;SDS011;10754;51.106;7.164;2022-10-17T10:29:32;4.20;;;2.05;;
21192;SDS011;10754;51.106;7.164;2022-10-17T10:32:11;3.60;;;2.08;;
21192;SDS011;10754;51.106;7.164;2022-10-17T10:35:06;3.63;;;2.33;;
21192;SDS011;10754;51.106;7.164;2022-10-17T10:37:43;3.33;;;2.05;;
21192;SDS011;10754;51.106;7.164;2022-10-17T10:42:47;5.13;;;2.22;;
21192;SDS011;10754;51.106;7.164;2022-10-17T10:45:25;6.47;;;2.20;;
21192;SDS011;10754;51.106;7.164;2022-10-17T10:47:59;7.43;;;2.60;;
21192;SDS011;10754;51.106;7.164;2022-10-17T10:50:31;2.92;;;1.90;;
21192;SDS011;10754;51.106;7.164;2022-10-17T10:55:52;2.42;;;1.65;;
21192;SDS011;10754;51.106;7.164;2022-10-17T11:01:29;4.72;;;2.25;;
21192;SDS011;10754;51.106;7.164;2022-10-17T11:06:44;5.75;;;1.92;;
21192;SDS011;10754;51.106;7.164;2022-10-17T11:11:53;6.95;;;2.38;;
21192;SDS011;10754;51.106;7.164;2022-10-17T11:14:35;2.85;;;1.98;;
21192;SDS011;10754;51.106;7.164;2022-10-17T11:22:37;3.10;;;2.17;;
21192;SDS011;10754;51.106;7.164;2022-10-17T11:28:02;2.03;;;1.83;;
21192;SDS011;10754;51.106;7.164;2022-10-17T11:33:34;4.75;;;2.22;;
21192;SDS011;10754;51.106;7.164;2022-10-17T11:36:13;2.97;;;1.80;;
21192;SDS011;10754;51.106;7.164;2022-10-17T11:38:48;4.45;;;1.90;;
21192;SDS011;10754;51.106;7.164;2022-10-17T11:41:20;5.55;;;2.15;;
21192;SDS011;10754;51.106;7.164;2022-10-17T11:43:55;4.38;;;2.33;;
21192;SDS011;10754;51.106;7.164;2022-10-17T11:46:24;4.20;;;2.08;;
21192;SDS011;10754;51.106;7.164;2022-10-17T11:51:23;3.70;;;1.92;;
21192;SDS011;10754;51.106;7.164;2022-10-17T11:56:59;3.85;;;2.00;;
21192;SDS011;10754;51.106;7.164;2022-10-17T12:02:48;4.28;;;2.10;;
21192;SDS011;10754;51.106;7.164;2022-10-17T12:08:29;6.20;;;2.25;;
21192;SDS011;10754;51.106;7.164;2022-10-17T12:13:47;4.55;;;2.30;;
21192;SDS011;10754;51.106;7.164;2022-10-17T12:18:46;3.97;;;2.47;;
21192;SDS011;10754;51.106;7.164;2022-10-17T12:30:02;6.32;;;2.85;;
21192;SDS011;10754;51.106;7.164;2022-10-17T12:35:46;3.65;;;2.13;;
21192;SDS011;10754;51.106;7.164;2022-10-17T12:45:55;3.53;;;2.22;;
21192;SDS011;10754;51.106;7.164;2022-10-17T12:56:18;6.47;;;2.35;;
21192;SDS011;10754;51.106;7.164;2022-10-17T12:58:45;3.72;;;2.00;;
21192;SDS011;10754;51.106;7.164;2022-10-17T13:01:16;6.38;;;2.30;;
21192;SDS011;10754;51.106;7.164;2022-10-17T13:03:51;7.90;;;2.38;;
21192;SDS011;10754;51.106;7.164;2022-10-17T13:06:19;3.85;;;2.17;;
21192;SDS011;10754;51.106;7.164;2022-10-17T13:08:49;5.10;;;2.33;;
21192;SDS011;10754;51.106;7.164;2022-10-17T13:11:21;3.67;;;2.40;;
21192;SDS011;10754;51.106;7.164;2022-10-17T13:13:50;3.60;;;2.13;;
21192;SDS011;10754;51.106;7.164;2022-10-17T13:16:28;4.50;;;2.20;;
21192;SDS011;10754;51.106;7.164;2022-10-17T13:19:00;6.43;;;2.28;;
21192;SDS011;10754;51.106;7.164;2022-10-17T13:21:27;6.80;;;2.45;;
21192;SDS011;10754;51.106;7.164;2022-10-17T13:23:53;5.28;;;2.28;;
21192;SDS011;10754;51.106;7.164;2022-10-17T13:26:26;4.63;;;2.30;;
21192;SDS011;10754;51.106;7.164;2022-10-17T13:29:12;5.03;;;2.40;;
21192;SDS011;10754;51.106;7.164;2022-10-17T13:31:40;8.00;;;2.63;;
21192;SDS011;10754;51.106;7.164;2022-10-17T13:34:17;3.90;;;2.40;;
21192;SDS011;10754;51.106;7.164;2022-10-17T13:36:53;6.57;;;2.30;;
21192;SDS011;10754;51.106;7.164;2022-10-17T13:39:22;6.50;;;2.58;;
21192;SDS011;10754;51.106;7.164;2022-10-17T13:41:51;5.43;;;2.58;;
21192;SDS011;10754;51.106;7.164;2022-10-17T13:44:27;7.63;;;2.55;;
21192;SDS011;10754;51.106;7.164;2022-10-17T13:46:58;7.20;;;2.70;;
21192;SDS011;10754;51.106;7.164;2022-10-17T13:52:01;3.40;;;2.22;;
21192;SDS011;10754;51.106;7.164;2022-10-17T13:54:39;4.65;;;2.08;;
21192;SDS011;10754;51.106;7.164;2022-10-17T13:57:25;4.72;;;2.65;;
21192;SDS011;10754;51.106;7.164;2022-10-17T14:00:14;3.90;;;2.55;;
21192;SDS011;10754;51.106;7.164;2022-10-17T14:02:44;4.40;;;2.28;;
21192;SDS011;10754;51.106;7.164;2022-10-17T14:05:10;4.35;;;2.25;;
21192;SDS011;10754;51.106;7.164;2022-10-17T14:10:28;5.00;;;2.42;;
21192;SDS011;10754;51.106;7.164;2022-10-17T14:12:57;5.72;;;2.40;;
21192;SDS011;10754;51.106;7.164;2022-10-17T14:15:25;4.95;;;2.10;;
21192;SDS011;10754;51.106;7.164;2022-10-17T14:17:57;5.25;;;2.45;;
21192;SDS011;10754;51.106;7.164;2022-10-17T14:20:30;5.63;;;2.42;;
21192;SDS011;10754;51.106;7.164;2022-10-17T14:22:57;4.22;;;2.30;;
21192;SDS011;10754;51.106;7.164;2022-10-17T14:25:25;3.78;;;2.20;;
21192;SDS011;10754;51.106;7.164;2022-10-17T14:27:59;5.00;;;2.47;;
21192;SDS011;10754;51.106;7.164;2022-10-17T14:30:34;3.97;;;2.22;;
21192;SDS011;10754;51.106;7.164;2022-10-17T14:33:04;2.88;;;2.20;;
21192;SDS011;10754;51.106;7.164;2022-10-17T14:35:32;5.40;;;2.45;;
21192;SDS011;10754;51.106;7.164;2022-10-17T14:38:02;3.35;;;2.28;;
21192;SDS011;10754;51.106;7.164;2022-10-17T14:40:30;4.40;;;2.28;;
21192;SDS011;10754;51.106;7.164;2022-10-17T14:42:57;4.88;;;2.33;;
21192;SDS011;10754;51.106;7.164;2022-10-17T14:45:26;4.00;;;2.50;;
21192;SDS011;10754;51.106;7.164;2022-10-17T14:48:01;8.98;;;4.35;;
21192;SDS011;10754;51.106;7.164;2022-10-17T14:50:38;5.70;;;3.15;;
21192;SDS011;10754;51.106;7.164;2022-10-17T14:55:36;4.47;;;2.60;;
21192;SDS011;10754;51.106;7.164;2022-10-17T14:58:16;10.23;;;3.38;;
21192;SDS011;10754;51.106;7.164;2022-10-17T15:00:46;8.02;;;3.22;;
21192;SDS011;10754;51.106;7.164;2022-10-17T15:03:12;7.13;;;3.17;;
21192;SDS011;10754;51.106;7.164;2022-10-17T15:05:37;4.97;;;2.90;;
21192;SDS011;10754;51.106;7.164;2022-10-17T15:08:04;5.32;;;3.03;;
21192;SDS011;10754;51.106;7.164;2022-10-17T15:10:36;6.20;;;3.20;;
21192;SDS011;10754;51.106;7.164;2022-10-17T15:13:05;5.63;;;3.50;;
21192;SDS011;10754;51.106;7.164;2022-10-17T15:15:31;9.25;;;4.05;;
21192;SDS011;10754;51.106;7.164;2022-10-17T15:17:57;7.18;;;3.88;;
21192;SDS011;10754;51.106;7.164;2022-10-17T15:20:23;6.38;;;3.33;;
21192;SDS011;10754;51.106;7.164;2022-10-17T15:22:52;5.72;;;3.38;;
21192;SDS011;10754;51.106;7.164;2022-10-17T15:25:18;6.53;;;3.58;;
21192;SDS011;10754;51.106;7.164;2022-10-17T15:27:44;11.45;;;4.68;;
21192;SDS011;10754;51.106;7.164;2022-10-17T15:32:43;4.95;;;3.83;;
21192;SDS011;10754;51.106;7.164;2022-10-17T15:35:08;7.00;;;3.58;;
21192;SDS011;10754;51.106;7.164;2022-10-17T15:37:34;14.25;;;4.40;;
21192;SDS011;10754;51.106;7.164;2022-10-17T15:39:59;6.80;;;5.82;;
21192;SDS011;10754;51.106;7.164;2022-10-17T15:42:27;8.15;;;7.38;;
21192;SDS011;10754;51.106;7.164;2022-10-17T15:44:54;12.10;;;7.63;;
21192;SDS011;10754;51.106;7.164;2022-10-17T15:47:21;6.05;;;4.90;;
21192;SDS011;10754;51.106;7.164;2022-10-17T15:49:50;4.43;;;3.40;;
21192;SDS011;10754;51.106;7.164;2022-10-17T15:52:16;5.05;;;3.20;;
21192;SDS011;10754;51.106;7.164;2022-10-17T15:54:42;9.63;;;3.45;;
21192;SDS011;10754;51.106;7.164;2022-10-17T15:57:11;4.95;;;2.83;;
21192;SDS011;10754;51.106;7.164;2022-10-17T15:59:44;3.28;;;2.20;;
21192;SDS011;10754;51.106;7.164;2022-10-17T16:02:12;5.55;;;1.98;;
21192;SDS011;10754;51.106;7.164;2022-10-17T16:04:38;3.92;;;1.80;;
21192;SDS011;10754;51.106;7.164;2022-10-17T16:07:04;6.40;;;2.55;;
21192;SDS011;10754;51.106;7.164;2022-10-17T16:09:31;4.72;;;2.20;;
21192;SDS011;10754;51.106;7.164;2022-10-17T16:11:57;4.57;;;2.28;;
21192;SDS011;10754;51.106;7.164;2022-10-17T16:14:25;3.78;;;1.88;;
21192;SDS011;10754;51.106;7.164;2022-10-17T16:16:50;5.13;;;2.10;;
21192;SDS011;10754;51.106;7.164;2022-10-17T16:19:16;3.92;;;2.08;;
21192;SDS011;10754;51.106;7.164;2022-10-17T16:21:41;11.60;;;2.92;;
21192;SDS011;10754;51.106;7.164;2022-10-17T16:24:08;3.42;;;1.65;;
21192;SDS011;10754;51.106;7.164;2022-10-17T16:26:35;6.03;;;2.30;;
21192;SDS011;10754;51.106;7.164;2022-10-17T16:29:02;10.05;;;2.78;;
21192;SDS011;10754;51.106;7.164;2022-10-17T16:31:35;9.10;;;2.35;;
21192;SDS011;10754;51.106;7.164;2022-10-17T16:34:03;13.07;;;2.97;;
21192;SDS011;10754;51.106;7.164;2022-10-17T16:36:30;6.85;;;2.63;;
21192;SDS011;10754;51.106;7.164;2022-10-17T16:38:56;8.10;;;2.80;;
21192;SDS011;10754;51.106;7.164;2022-10-17T16:43:49;4.82;;;2.58;;
21192;SDS011;10754;51.106;7.164;2022-10-17T16:46:17;3.75;;;2.53;;
21192;SDS011;10754;51.106;7.164;2022-10-17T16:48:43;5.43;;;2.47;;
21192;SDS011;10754;51.106;7.164;2022-10-17T16:51:10;7.78;;;2.70;;
21192;SDS011;10754;51.106;7.164;2022-10-17T16:53:37;4.03;;;2.58;;
21192;SDS011;10754;51.106;7.164;2022-10-17T16:56:07;5.88;;;2.45;;
21192;SDS011;10754;51.106;7.164;2022-10-17T16:58:33;6.72;;;2.90;;
21192;SDS011;10754;51.106;7.164;2022-10-17T17:01:02;6.20;;;2.85;;
21192;SDS011;10754;51.106;7.164;2022-10-17T17:03:33;6.88;;;2.55;;
21192;SDS011;10754;51.106;7.164;2022-10-17T17:05:59;7.93;;;3.00;;
21192;SDS011;10754;51.106;7.164;2022-10-17T17:08:25;6.18;;;2.72;;